sensor_id;sensor_type;location;lat;lon;timestamp;P1;durP1;ratioP1;P2;durP2;ratioP2
65715;SDS011;63484;52.054;8.518;2023-03-12T00:04:16;14.63;;;7.33;;
65715;SDS011;63484;52.054;8.518;2023-03-12T00:09:18;14.03;;;5.50;;
65715;SDS011;63484;52.054;8.518;2023-03-12T00:14:19;12.67;;;4.77;;
65715;SDS011;63484;52.054;8.518;2023-03-12T00:19:22;12.17;;;5.00;;
65715;SDS011;63484;52.054;8.518;2023-03-12T00:24:24;9.93;;;5.03;;
65715;SDS011;63484;52.054;8.518;2023-03-12T00:29:25;9.30;;;4.87;;
65715;SDS011;63484;52.054;8.518;2023-03-12T00:34:28;8.87;;;4.63;;
65715;SDS011;63484;52.054;8.518;2023-03-12T00:39:29;11.47;;;5.23;;
65715;SDS011;63484;52.054;8.518;2023-03-12T00:44:32;11.77;;;5.20;;
65715;SDS011;63484;52.054;8.518;2023-03-12T00:49:34;9.93;;;4.97;;
65715;SDS011;63484;52.054;8.518;2023-03-12T00:54:36;10.73;;;5.07;;
65715;SDS011;63484;52.054;8.518;2023-03-12T00:59:38;9.83;;;5.10;;
65715;SDS011;63484;52.054;8.518;2023-03-12T01:04:41;11.67;;;5.30;;
65715;SDS011;63484;52.054;8.518;2023-03-12T01:09:43;13.10;;;5.87;;
65715;SDS011;63484;52.054;8.518;2023-03-12T01:14:45;10.07;;;4.90;;
65715;SDS011;63484;52.054;8.518;2023-03-12T01:19:48;8.23;;;4.37;;
65715;SDS011;63484;52.054;8.518;2023-03-12T01:24:49;9.03;;;5.17;;
65715;SDS011;63484;52.054;8.518;2023-03-12T01:29:50;11.07;;;5.33;;
65715;SDS011;63484;52.054;8.518;2023-03-12T01:34:53;10.87;;;5.20;;
65715;SDS011;63484;52.054;8.518;2023-03-12T01:39:55;12.57;;;5.65;;
65715;SDS011;63484;52.054;8.518;2023-03-12T01:44:57;12.00;;;5.77;;
65715;SDS011;63484;52.054;8.518;2023-03-12T01:50:02;11.93;;;5.80;;
65715;SDS011;63484;52.054;8.518;2023-03-12T01:55:05;10.90;;;5.53;;
65715;SDS011;63484;52.054;8.518;2023-03-12T02:00:12;13.07;;;5.83;;
65715;SDS011;63484;52.054;8.518;2023-03-12T02:05:21;9.23;;;5.13;;
65715;SDS011;63484;52.054;8.518;2023-03-12T02:10:29;11.43;;;5.50;;
65715;SDS011;63484;52.054;8.518;2023-03-12T02:15:30;15.23;;;6.33;;
65715;SDS011;63484;52.054;8.518;2023-03-12T02:20:35;11.83;;;5.47;;
65715;SDS011;63484;52.054;8.518;2023-03-12T02:25:43;14.57;;;5.70;;
65715;SDS011;63484;52.054;8.518;2023-03-12T02:30:49;12.03;;;5.50;;
65715;SDS011;63484;52.054;8.518;2023-03-12T02:35:54;13.53;;;5.50;;
65715;SDS011;63484;52.054;8.518;2023-03-12T02:40:59;14.60;;;6.10;;
65715;SDS011;63484;52.054;8.518;2023-03-12T02:46:05;10.80;;;5.40;;
65715;SDS011;63484;52.054;8.518;2023-03-12T02:51:08;11.53;;;5.90;;
65715;SDS011;63484;52.054;8.518;2023-03-12T02:56:11;15.47;;;6.20;;
65715;SDS011;63484;52.054;8.518;2023-03-12T03:01:12;14.20;;;6.55;;
65715;SDS011;63484;52.054;8.518;2023-03-12T03:06:14;15.40;;;6.47;;
65715;SDS011;63484;52.054;8.518;2023-03-12T03:11:18;11.50;;;6.17;;
65715;SDS011;63484;52.054;8.518;2023-03-12T03:16:23;15.10;;;6.87;;
65715;SDS011;63484;52.054;8.518;2023-03-12T03:26:30;16.77;;;6.63;;
65715;SDS011;63484;52.054;8.518;2023-03-12T03:31:32;17.37;;;6.60;;
65715;SDS011;63484;52.054;8.518;2023-03-12T03:36:34;17.07;;;7.43;;
65715;SDS011;63484;52.054;8.518;2023-03-12T03:41:42;12.57;;;6.27;;
65715;SDS011;63484;52.054;8.518;2023-03-12T03:46:45;14.40;;;6.30;;
65715;SDS011;63484;52.054;8.518;2023-03-12T03:51:47;15.00;;;6.63;;
65715;SDS011;63484;52.054;8.518;2023-03-12T03:56:56;13.57;;;6.50;;
65715;SDS011;63484;52.054;8.518;2023-03-12T04:01:58;13.70;;;6.80;;
65715;SDS011;63484;52.054;8.518;2023-03-12T04:12:04;14.40;;;6.30;;
65715;SDS011;63484;52.054;8.518;2023-03-12T04:17:09;10.40;;;5.63;;
65715;SDS011;63484;52.054;8.518;2023-03-12T04:22:10;13.07;;;6.70;;
65715;SDS011;63484;52.054;8.518;2023-03-12T04:27:13;15.37;;;5.93;;
65715;SDS011;63484;52.054;8.518;2023-03-12T04:32:15;13.27;;;7.10;;
65715;SDS011;63484;52.054;8.518;2023-03-12T04:37:17;13.17;;;6.80;;
65715;SDS011;63484;52.054;8.518;2023-03-12T04:42:21;15.50;;;6.20;;
65715;SDS011;63484;52.054;8.518;2023-03-12T04:47:22;10.27;;;5.60;;
65715;SDS011;63484;52.054;8.518;2023-03-12T04:52:24;9.67;;;5.70;;
65715;SDS011;63484;52.054;8.518;2023-03-12T04:57:28;9.60;;;5.20;;
65715;SDS011;63484;52.054;8.518;2023-03-12T05:02:29;10.87;;;5.30;;
65715;SDS011;63484;52.054;8.518;2023-03-12T05:07:31;10.60;;;5.70;;
65715;SDS011;63484;52.054;8.518;2023-03-12T05:12:34;10.03;;;4.73;;
65715;SDS011;63484;52.054;8.518;2023-03-12T05:17:35;8.33;;;3.57;;
65715;SDS011;63484;52.054;8.518;2023-03-12T05:22:38;7.37;;;2.90;;
65715;SDS011;63484;52.054;8.518;2023-03-12T05:27:41;8.10;;;3.17;;
65715;SDS011;63484;52.054;8.518;2023-03-12T05:32:44;7.27;;;3.40;;
65715;SDS011;63484;52.054;8.518;2023-03-12T05:37:46;8.70;;;3.27;;
65715;SDS011;63484;52.054;8.518;2023-03-12T05:42:49;7.80;;;3.13;;
65715;SDS011;63484;52.054;8.518;2023-03-12T05:47:51;5.60;;;3.20;;
65715;SDS011;63484;52.054;8.518;2023-03-12T05:52:53;6.37;;;2.90;;
65715;SDS011;63484;52.054;8.518;2023-03-12T05:57:56;4.43;;;2.60;;
65715;SDS011;63484;52.054;8.518;2023-03-12T06:02:57;5.65;;;2.38;;
65715;SDS011;63484;52.054;8.518;2023-03-12T06:07:59;8.37;;;2.30;;
65715;SDS011;63484;52.054;8.518;2023-03-12T06:13:02;4.23;;;2.50;;
65715;SDS011;63484;52.054;8.518;2023-03-12T06:18:04;3.23;;;1.90;;
65715;SDS011;63484;52.054;8.518;2023-03-12T06:23:07;9.20;;;1.83;;
65715;SDS011;63484;52.054;8.518;2023-03-12T06:28:10;5.30;;;1.73;;
65715;SDS011;63484;52.054;8.518;2023-03-12T06:33:11;5.37;;;1.93;;
65715;SDS011;63484;52.054;8.518;2023-03-12T06:38:13;3.73;;;1.70;;
65715;SDS011;63484;52.054;8.518;2023-03-12T06:43:16;5.53;;;1.70;;
65715;SDS011;63484;52.054;8.518;2023-03-12T06:48:17;4.87;;;1.90;;
65715;SDS011;63484;52.054;8.518;2023-03-12T06:53:19;6.15;;;1.90;;
65715;SDS011;63484;52.054;8.518;2023-03-12T06:58:22;9.55;;;2.00;;
65715;SDS011;63484;52.054;8.518;2023-03-12T07:03:24;2.78;;;1.23;;
65715;SDS011;63484;52.054;8.518;2023-03-12T07:08:26;4.95;;;1.88;;
65715;SDS011;63484;52.054;8.518;2023-03-12T07:13:31;2.72;;;1.60;;
65715;SDS011;63484;52.054;8.518;2023-03-12T07:18:32;5.55;;;1.50;;
65715;SDS011;63484;52.054;8.518;2023-03-12T07:23:34;7.43;;;1.67;;
65715;SDS011;63484;52.054;8.518;2023-03-12T07:28:37;6.15;;;1.67;;
65715;SDS011;63484;52.054;8.518;2023-03-12T07:33:38;8.05;;;1.70;;
65715;SDS011;63484;52.054;8.518;2023-03-12T07:38:40;4.53;;;1.52;;
65715;SDS011;63484;52.054;8.518;2023-03-12T07:43:43;4.00;;;2.30;;
65715;SDS011;63484;52.054;8.518;2023-03-12T07:48:44;7.03;;;1.92;;
65715;SDS011;63484;52.054;8.518;2023-03-12T07:53:45;4.05;;;1.80;;
65715;SDS011;63484;52.054;8.518;2023-03-12T07:58:48;5.63;;;1.42;;
65715;SDS011;63484;52.054;8.518;2023-03-12T08:03:50;3.30;;;1.30;;
65715;SDS011;63484;52.054;8.518;2023-03-12T08:08:51;9.48;;;1.45;;
65715;SDS011;63484;52.054;8.518;2023-03-12T08:13:54;4.82;;;1.50;;
65715;SDS011;63484;52.054;8.518;2023-03-12T08:18:55;5.43;;;1.70;;
65715;SDS011;63484;52.054;8.518;2023-03-12T08:23:57;7.10;;;1.77;;
65715;SDS011;63484;52.054;8.518;2023-03-12T08:28:59;3.83;;;1.60;;
65715;SDS011;63484;52.054;8.518;2023-03-12T08:34:01;4.43;;;1.40;;
65715;SDS011;63484;52.054;8.518;2023-03-12T08:39:02;5.05;;;1.63;;
65715;SDS011;63484;52.054;8.518;2023-03-12T08:44:05;5.68;;;2.30;;
65715;SDS011;63484;52.054;8.518;2023-03-12T08:49:07;4.53;;;1.30;;
65715;SDS011;63484;52.054;8.518;2023-03-12T08:54:08;5.05;;;1.60;;
65715;SDS011;63484;52.054;8.518;2023-03-12T08:59:11;4.03;;;1.65;;
65715;SDS011;63484;52.054;8.518;2023-03-12T09:09:15;5.32;;;1.50;;
65715;SDS011;63484;52.054;8.518;2023-03-12T09:14:18;9.45;;;2.10;;
65715;SDS011;63484;52.054;8.518;2023-03-12T09:19:19;5.75;;;1.80;;
65715;SDS011;63484;52.054;8.518;2023-03-12T09:24:21;6.57;;;1.42;;
65715;SDS011;63484;52.054;8.518;2023-03-12T09:29:24;4.03;;;2.13;;
65715;SDS011;63484;52.054;8.518;2023-03-12T09:34:25;3.65;;;1.90;;
65715;SDS011;63484;52.054;8.518;2023-03-12T09:39:26;6.18;;;2.25;;
65715;SDS011;63484;52.054;8.518;2023-03-12T09:44:31;7.40;;;2.38;;
65715;SDS011;63484;52.054;8.518;2023-03-12T09:49:37;6.38;;;2.25;;
65715;SDS011;63484;52.054;8.518;2023-03-12T09:54:43;4.00;;;2.10;;
65715;SDS011;63484;52.054;8.518;2023-03-12T09:59:53;7.78;;;2.13;;
65715;SDS011;63484;52.054;8.518;2023-03-12T10:04:55;3.67;;;2.50;;
65715;SDS011;63484;52.054;8.518;2023-03-12T10:10:11;5.80;;;2.55;;
65715;SDS011;63484;52.054;8.518;2023-03-12T10:15:28;8.65;;;2.72;;
65715;SDS011;63484;52.054;8.518;2023-03-12T10:20:41;8.52;;;2.65;;
65715;SDS011;63484;52.054;8.518;2023-03-12T10:25:51;4.78;;;2.60;;
65715;SDS011;63484;52.054;8.518;2023-03-12T10:30:59;11.07;;;2.30;;
65715;SDS011;63484;52.054;8.518;2023-03-12T10:36:07;7.20;;;2.63;;
65715;SDS011;63484;52.054;8.518;2023-03-12T10:41:14;6.18;;;2.83;;
65715;SDS011;63484;52.054;8.518;2023-03-12T10:51:42;8.00;;;3.28;;
65715;SDS011;63484;52.054;8.518;2023-03-12T10:56:54;8.23;;;3.40;;
65715;SDS011;63484;52.054;8.518;2023-03-12T11:01:56;8.40;;;3.60;;
65715;SDS011;63484;52.054;8.518;2023-03-12T11:07:03;5.65;;;3.63;;
65715;SDS011;63484;52.054;8.518;2023-03-12T11:12:21;7.90;;;4.07;;
65715;SDS011;63484;52.054;8.518;2023-03-12T11:17:25;9.80;;;4.05;;
65715;SDS011;63484;52.054;8.518;2023-03-12T11:22:31;8.15;;;4.15;;
65715;SDS011;63484;52.054;8.518;2023-03-12T11:27:38;8.43;;;4.07;;
65715;SDS011;63484;52.054;8.518;2023-03-12T11:32:43;4.63;;;3.78;;
65715;SDS011;63484;52.054;8.518;2023-03-12T11:43:05;6.72;;;3.72;;
65715;SDS011;63484;52.054;8.518;2023-03-12T11:53:29;8.05;;;3.60;;
65715;SDS011;63484;52.054;8.518;2023-03-12T11:59:04;8.52;;;3.92;;
65715;SDS011;63484;52.054;8.518;2023-03-12T12:04:20;7.15;;;4.35;;
65715;SDS011;63484;52.054;8.518;2023-03-12T12:09:39;7.63;;;4.57;;
65715;SDS011;63484;52.054;8.518;2023-03-12T12:14:50;9.70;;;4.53;;
65715;SDS011;63484;52.054;8.518;2023-03-12T12:20:11;9.35;;;4.78;;
65715;SDS011;63484;52.054;8.518;2023-03-12T12:25:26;7.97;;;4.90;;
65715;SDS011;63484;52.054;8.518;2023-03-12T12:30:39;7.13;;;4.78;;
65715;SDS011;63484;52.054;8.518;2023-03-12T12:35:51;9.70;;;5.03;;
65715;SDS011;63484;52.054;8.518;2023-03-12T12:40:55;6.65;;;4.68;;
65715;SDS011;63484;52.054;8.518;2023-03-12T12:46:03;9.45;;;4.75;;
65715;SDS011;63484;52.054;8.518;2023-03-12T12:51:09;7.57;;;5.30;;
65715;SDS011;63484;52.054;8.518;2023-03-12T12:56:14;10.80;;;5.45;;
65715;SDS011;63484;52.054;8.518;2023-03-12T13:01:21;9.23;;;5.68;;
65715;SDS011;63484;52.054;8.518;2023-03-12T13:06:26;9.55;;;5.78;;
65715;SDS011;63484;52.054;8.518;2023-03-12T13:11:36;11.10;;;6.07;;
65715;SDS011;63484;52.054;8.518;2023-03-12T13:21:45;11.85;;;6.88;;
65715;SDS011;63484;52.054;8.518;2023-03-12T13:26:59;8.93;;;6.10;;
65715;SDS011;63484;52.054;8.518;2023-03-12T13:32:09;10.40;;;6.40;;
65715;SDS011;63484;52.054;8.518;2023-03-12T13:43:02;10.93;;;6.95;;
65715;SDS011;63484;52.054;8.518;2023-03-12T13:48:12;12.23;;;7.67;;
65715;SDS011;63484;52.054;8.518;2023-03-12T13:53:19;18.10;;;8.45;;
65715;SDS011;63484;52.054;8.518;2023-03-12T13:58:25;14.05;;;9.55;;
65715;SDS011;63484;52.054;8.518;2023-03-12T14:03:28;17.75;;;10.98;;
65715;SDS011;63484;52.054;8.518;2023-03-12T14:08:37;18.60;;;11.35;;
65715;SDS011;63484;52.054;8.518;2023-03-12T14:13:59;21.33;;;12.68;;
65715;SDS011;63484;52.054;8.518;2023-03-12T14:19:12;24.73;;;12.63;;
65715;SDS011;63484;52.054;8.518;2023-03-12T14:24:20;24.15;;;13.95;;
65715;SDS011;63484;52.054;8.518;2023-03-12T14:29:27;24.20;;;12.82;;
65715;SDS011;63484;52.054;8.518;2023-03-12T14:34:32;27.45;;;13.65;;
65715;SDS011;63484;52.054;8.518;2023-03-12T14:39:42;30.13;;;15.02;;
65715;SDS011;63484;52.054;8.518;2023-03-12T14:44:53;28.48;;;15.27;;
65715;SDS011;63484;52.054;8.518;2023-03-12T14:49:57;29.83;;;15.45;;
65715;SDS011;63484;52.054;8.518;2023-03-12T14:55:00;31.25;;;16.65;;
65715;SDS011;63484;52.054;8.518;2023-03-12T15:00:05;30.90;;;15.13;;
65715;SDS011;63484;52.054;8.518;2023-03-12T15:05:15;28.55;;;14.57;;
65715;SDS011;63484;52.054;8.518;2023-03-12T15:10:19;30.30;;;16.07;;
65715;SDS011;63484;52.054;8.518;2023-03-12T15:15:28;31.58;;;16.38;;
65715;SDS011;63484;52.054;8.518;2023-03-12T15:20:35;33.88;;;17.08;;
65715;SDS011;63484;52.054;8.518;2023-03-12T15:25:36;37.45;;;18.40;;
65715;SDS011;63484;52.054;8.518;2023-03-12T15:30:40;37.78;;;18.40;;
65715;SDS011;63484;52.054;8.518;2023-03-12T15:35:57;37.63;;;19.17;;
65715;SDS011;63484;52.054;8.518;2023-03-12T15:41:01;37.40;;;18.95;;
65715;SDS011;63484;52.054;8.518;2023-03-12T15:46:10;38.72;;;17.80;;
65715;SDS011;63484;52.054;8.518;2023-03-12T15:51:13;37.90;;;17.45;;
65715;SDS011;63484;52.054;8.518;2023-03-12T15:56:26;36.60;;;18.53;;
65715;SDS011;63484;52.054;8.518;2023-03-12T16:01:43;34.67;;;17.10;;
65715;SDS011;63484;52.054;8.518;2023-03-12T16:06:46;36.72;;;17.48;;
65715;SDS011;63484;52.054;8.518;2023-03-12T16:11:48;33.92;;;16.75;;
65715;SDS011;63484;52.054;8.518;2023-03-12T16:16:52;33.50;;;16.35;;
65715;SDS011;63484;52.054;8.518;2023-03-12T16:21:54;33.33;;;16.85;;
65715;SDS011;63484;52.054;8.518;2023-03-12T16:26:55;35.45;;;16.80;;
65715;SDS011;63484;52.054;8.518;2023-03-12T16:31:59;33.88;;;15.35;;
65715;SDS011;63484;52.054;8.518;2023-03-12T16:37:01;35.67;;;14.43;;
65715;SDS011;63484;52.054;8.518;2023-03-12T16:42:03;39.72;;;13.45;;
65715;SDS011;63484;52.054;8.518;2023-03-12T16:47:14;36.60;;;12.32;;
65715;SDS011;63484;52.054;8.518;2023-03-12T16:52:16;39.70;;;12.57;;
65715;SDS011;63484;52.054;8.518;2023-03-12T16:57:19;36.40;;;12.63;;
65715;SDS011;63484;52.054;8.518;2023-03-12T17:02:25;31.35;;;11.27;;
65715;SDS011;63484;52.054;8.518;2023-03-12T17:07:27;29.50;;;10.13;;
65715;SDS011;63484;52.054;8.518;2023-03-12T17:12:30;31.92;;;9.25;;
65715;SDS011;63484;52.054;8.518;2023-03-12T17:17:33;29.65;;;9.02;;
65715;SDS011;63484;52.054;8.518;2023-03-12T17:22:35;21.15;;;8.20;;
65715;SDS011;63484;52.054;8.518;2023-03-12T17:27:36;23.23;;;8.70;;
65715;SDS011;63484;52.054;8.518;2023-03-12T17:32:39;29.65;;;7.65;;
65715;SDS011;63484;52.054;8.518;2023-03-12T17:37:40;22.25;;;7.82;;
65715;SDS011;63484;52.054;8.518;2023-03-12T17:42:42;27.25;;;7.18;;
65715;SDS011;63484;52.054;8.518;2023-03-12T17:47:45;26.05;;;7.05;;
65715;SDS011;63484;52.054;8.518;2023-03-12T17:52:46;26.58;;;6.68;;
65715;SDS011;63484;52.054;8.518;2023-03-12T17:57:48;25.08;;;6.70;;
65715;SDS011;63484;52.054;8.518;2023-03-12T18:02:50;19.92;;;6.53;;
65715;SDS011;63484;52.054;8.518;2023-03-12T18:07:52;26.48;;;5.82;;
65715;SDS011;63484;52.054;8.518;2023-03-12T18:12:54;26.00;;;7.53;;
65715;SDS011;63484;52.054;8.518;2023-03-12T18:17:56;26.10;;;6.43;;
65715;SDS011;63484;52.054;8.518;2023-03-12T18:22:58;22.58;;;6.93;;
65715;SDS011;63484;52.054;8.518;2023-03-12T18:28:00;25.75;;;7.10;;
65715;SDS011;63484;52.054;8.518;2023-03-12T18:33:03;25.42;;;6.95;;
65715;SDS011;63484;52.054;8.518;2023-03-12T18:38:04;24.52;;;7.60;;
65715;SDS011;63484;52.054;8.518;2023-03-12T18:43:06;25.23;;;7.97;;
65715;SDS011;63484;52.054;8.518;2023-03-12T18:48:09;20.67;;;6.80;;
65715;SDS011;63484;52.054;8.518;2023-03-12T18:53:10;22.45;;;8.10;;
65715;SDS011;63484;52.054;8.518;2023-03-12T18:58:12;32.33;;;8.85;;
65715;SDS011;63484;52.054;8.518;2023-03-12T19:03:14;32.42;;;9.10;;
65715;SDS011;63484;52.054;8.518;2023-03-12T19:08:16;33.00;;;10.27;;
65715;SDS011;63484;52.054;8.518;2023-03-12T19:13:19;31.85;;;8.82;;
65715;SDS011;63484;52.054;8.518;2023-03-12T19:18:22;37.97;;;10.07;;
65715;SDS011;63484;52.054;8.518;2023-03-12T19:23:23;36.40;;;10.52;;
65715;SDS011;63484;52.054;8.518;2023-03-12T19:28:25;35.55;;;10.15;;
65715;SDS011;63484;52.054;8.518;2023-03-12T19:33:28;32.58;;;9.88;;
65715;SDS011;63484;52.054;8.518;2023-03-12T19:38:29;38.87;;;9.53;;
65715;SDS011;63484;52.054;8.518;2023-03-12T19:43:31;34.53;;;9.00;;
65715;SDS011;63484;52.054;8.518;2023-03-12T19:48:34;41.88;;;8.70;;
65715;SDS011;63484;52.054;8.518;2023-03-12T19:53:35;27.88;;;7.55;;
65715;SDS011;63484;52.054;8.518;2023-03-12T19:58:37;33.25;;;6.70;;
65715;SDS011;63484;52.054;8.518;2023-03-12T20:03:40;34.30;;;7.10;;
65715;SDS011;63484;52.054;8.518;2023-03-12T20:08:41;25.77;;;6.18;;
65715;SDS011;63484;52.054;8.518;2023-03-12T20:13:44;25.88;;;5.43;;
65715;SDS011;63484;52.054;8.518;2023-03-12T20:18:46;31.63;;;5.22;;
65715;SDS011;63484;52.054;8.518;2023-03-12T20:23:48;22.50;;;4.55;;
65715;SDS011;63484;52.054;8.518;2023-03-12T20:28:49;30.58;;;4.63;;
65715;SDS011;63484;52.054;8.518;2023-03-12T20:33:52;25.30;;;4.10;;
65715;SDS011;63484;52.054;8.518;2023-03-12T20:38:53;30.25;;;4.80;;
65715;SDS011;63484;52.054;8.518;2023-03-12T20:43:55;26.42;;;3.83;;
65715;SDS011;63484;52.054;8.518;2023-03-12T20:48:58;28.98;;;4.22;;
65715;SDS011;63484;52.054;8.518;2023-03-12T20:54:00;30.50;;;3.90;;
65715;SDS011;63484;52.054;8.518;2023-03-12T20:59:01;29.60;;;4.22;;
65715;SDS011;63484;52.054;8.518;2023-03-12T21:04:04;28.67;;;3.67;;
65715;SDS011;63484;52.054;8.518;2023-03-12T21:09:06;21.13;;;3.03;;
65715;SDS011;63484;52.054;8.518;2023-03-12T21:14:07;25.83;;;3.65;;
65715;SDS011;63484;52.054;8.518;2023-03-12T21:19:10;21.60;;;3.33;;
65715;SDS011;63484;52.054;8.518;2023-03-12T21:24:11;27.58;;;3.13;;
65715;SDS011;63484;52.054;8.518;2023-03-12T21:29:13;29.08;;;3.72;;
65715;SDS011;63484;52.054;8.518;2023-03-12T21:34:16;20.88;;;3.42;;
65715;SDS011;63484;52.054;8.518;2023-03-12T21:39:17;24.42;;;3.67;;
65715;SDS011;63484;52.054;8.518;2023-03-12T21:44:18;23.20;;;3.28;;
65715;SDS011;63484;52.054;8.518;2023-03-12T21:49:21;24.27;;;3.72;;
65715;SDS011;63484;52.054;8.518;2023-03-12T21:54:22;26.55;;;3.55;;
65715;SDS011;63484;52.054;8.518;2023-03-12T21:59:24;26.75;;;3.65;;
65715;SDS011;63484;52.054;8.518;2023-03-12T22:04:26;28.25;;;2.85;;
65715;SDS011;63484;52.054;8.518;2023-03-12T22:09:28;22.80;;;4.37;;
65715;SDS011;63484;52.054;8.518;2023-03-12T22:14:30;25.42;;;4.18;;
65715;SDS011;63484;52.054;8.518;2023-03-12T22:19:32;26.05;;;3.72;;
65715;SDS011;63484;52.054;8.518;2023-03-12T22:24:34;22.95;;;3.47;;
65715;SDS011;63484;52.054;8.518;2023-03-12T22:29:36;20.80;;;3.58;;
65715;SDS011;63484;52.054;8.518;2023-03-12T22:34:39;20.35;;;3.10;;
65715;SDS011;63484;52.054;8.518;2023-03-12T22:39:40;16.05;;;2.95;;
65715;SDS011;63484;52.054;8.518;2023-03-12T22:44:42;19.98;;;3.25;;
65715;SDS011;63484;52.054;8.518;2023-03-12T22:49:45;19.05;;;3.03;;
65715;SDS011;63484;52.054;8.518;2023-03-12T22:54:50;20.58;;;3.60;;
65715;SDS011;63484;52.054;8.518;2023-03-12T22:59:52;22.80;;;3.88;;
65715;SDS011;63484;52.054;8.518;2023-03-12T23:04:55;19.80;;;2.92;;
65715;SDS011;63484;52.054;8.518;2023-03-12T23:09:56;25.33;;;4.05;;
65715;SDS011;63484;52.054;8.518;2023-03-12T23:14:58;27.17;;;4.50;;
65715;SDS011;63484;52.054;8.518;2023-03-12T23:20:01;18.70;;;3.78;;
65715;SDS011;63484;52.054;8.518;2023-03-12T23:25:02;25.37;;;3.70;;
65715;SDS011;63484;52.054;8.518;2023-03-12T23:30:05;22.63;;;3.20;;
65715;SDS011;63484;52.054;8.518;2023-03-12T23:35:08;18.15;;;3.17;;
65715;SDS011;63484;52.054;8.518;2023-03-12T23:40:10;16.15;;;2.85;;
65715;SDS011;63484;52.054;8.518;2023-03-12T23:45:12;19.38;;;3.38;;
65715;SDS011;63484;52.054;8.518;2023-03-12T23:50:15;20.00;;;2.97;;
65715;SDS011;63484;52.054;8.518;2023-03-12T23:55:16;24.63;;;4.80;;
